createdAt,value
2019-01-20T00:00:54.775Z,102.00
2019-01-20T00:02:01.140Z,102.32
2019-01-20T00:03:07.399Z,106.15
2019-01-20T00:04:13.366Z,101.80
2019-01-20T00:05:19.497Z,105.35
2019-01-20T00:06:25.474Z,104.95
2019-01-20T00:07:32.259Z,108.72
2019-01-20T00:08:38.218Z,104.25
2019-01-20T00:09:44.059Z,110.50
2019-01-20T00:10:49.952Z,105.67
2019-01-20T00:11:55.908Z,104.30
2019-01-20T00:13:01.719Z,98.82
2019-01-20T00:14:07.871Z,105.47
2019-01-20T00:15:16.614Z,103.38
2019-01-20T00:16:22.458Z,100.40
2019-01-20T00:17:28.368Z,101.12
2019-01-20T00:18:34.282Z,102.07
2019-01-20T00:19:40.033Z,100.22
2019-01-20T00:20:45.947Z,94.65
2019-01-20T00:21:51.622Z,97.37
2019-01-20T00:22:57.547Z,99.07
2019-01-20T00:24:03.474Z,103.00
2019-01-20T00:25:09.863Z,99.87
2019-01-20T00:26:15.865Z,98.47
2019-01-20T00:27:21.708Z,94.80
2019-01-20T00:28:27.624Z,96.17
2019-01-20T00:29:33.518Z,93.80
2019-01-20T00:30:39.504Z,96.28
2019-01-20T00:31:45.359Z,98.22
2019-01-20T00:32:51.268Z,95.25
2019-01-20T00:33:57.037Z,90.03
2019-01-20T00:35:02.915Z,92.85
2019-01-20T00:36:10.334Z,90.15
2019-01-20T00:37:16.283Z,91.45
2019-01-20T00:38:22.204Z,92.95
2019-01-20T00:39:28.076Z,95.65
2019-01-20T00:40:33.954Z,92.57
2019-01-20T00:41:40.015Z,95.30
2019-01-20T00:42:46.207Z,97.57
2019-01-20T00:43:52.052Z,98.20
2019-01-20T00:45:02.557Z,94.83
2019-01-20T00:46:05.673Z,92.02
2019-01-20T00:47:11.663Z,91.67
2019-01-20T00:48:17.557Z,88.80
2019-01-20T00:49:23.463Z,91.05
2019-01-20T00:50:29.376Z,91.45
2019-01-20T00:51:35.297Z,92.65
2019-01-20T00:52:41.127Z,90.70
2019-01-20T00:53:47.033Z,83.60
2019-01-20T00:54:53.043Z,79.22
2019-01-20T00:55:58.934Z,82.92
2019-01-20T00:57:05.604Z,86.40
2019-01-20T00:58:11.407Z,91.42
2019-01-20T00:59:17.262Z,96.80
2019-01-20T01:00:25.883Z,94.40
2019-01-20T01:01:32.311Z,91.65
2019-01-20T01:02:38.297Z,90.97
2019-01-20T01:03:44.207Z,85.60
2019-01-20T01:04:50.121Z,97.17
2019-01-20T01:05:55.927Z,93.15
2019-01-20T01:07:02.996Z,98.10
2019-01-20T01:08:09.575Z,99.13
2019-01-20T01:09:15.489Z,97.67
2019-01-20T01:10:21.899Z,102.85
2019-01-20T01:11:31.717Z,111.12
2019-01-20T01:12:35.987Z,119.00
2019-01-20T01:13:41.801Z,135.52
2019-01-20T01:14:48.152Z,130.55
2019-01-20T01:15:54.139Z,199.17
2019-01-20T01:17:00.027Z,217.20
2019-01-20T01:18:06.073Z,241.45
2019-01-20T01:19:12.040Z,254.30
2019-01-20T01:20:18.721Z,192.40
2019-01-20T01:21:24.669Z,198.02
2019-01-20T01:22:30.656Z,149.85
2019-01-20T01:23:36.530Z,129.38
2019-01-20T01:24:42.654Z,126.87
2019-01-20T01:25:48.540Z,113.77
2019-01-20T01:26:55.349Z,119.25
2019-01-20T01:28:01.198Z,116.75
2019-01-20T01:29:07.102Z,92.22
2019-01-20T01:30:16.282Z,78.17
2019-01-20T01:31:22.101Z,78.57
2019-01-20T01:32:27.978Z,78.67
2019-01-20T01:33:33.906Z,86.15
2019-01-20T01:34:59.123Z,86.22
2019-01-20T01:36:05.093Z,79.40
2019-01-20T01:37:11.018Z,90.28
2019-01-20T01:38:16.836Z,93.30
2019-01-20T01:39:22.803Z,90.30
2019-01-20T01:40:31.787Z,88.78
2019-01-20T01:41:39.122Z,79.55
2019-01-20T01:42:45.364Z,74.20
2019-01-20T01:43:51.230Z,82.37
2019-01-20T01:44:57.232Z,83.70
2019-01-20T01:46:03.199Z,87.17
2019-01-20T01:47:09.040Z,89.97
2019-01-20T01:48:14.861Z,97.42
2019-01-20T01:49:20.682Z,103.32
2019-01-20T01:50:26.535Z,112.40
2019-01-20T01:51:32.352Z,113.10
2019-01-20T01:52:39.327Z,118.05
2019-01-20T01:53:45.342Z,121.28
2019-01-20T01:54:51.281Z,118.28
2019-01-20T01:55:57.273Z,119.97
2019-01-20T01:57:03.259Z,123.47
2019-01-20T01:58:09.094Z,129.80
2019-01-20T01:59:14.956Z,132.45
2019-01-20T02:00:24.544Z,115.35
2019-01-20T02:01:30.439Z,101.87
2019-01-20T02:02:36.292Z,108.90
2019-01-20T02:03:42.271Z,107.75
2019-01-20T02:04:48.998Z,109.75
2019-01-20T02:05:54.810Z,105.55
2019-01-20T02:07:00.627Z,105.17
2019-01-20T02:08:06.498Z,102.40
2019-01-20T02:09:12.344Z,98.05
2019-01-20T02:10:20.219Z,95.87
2019-01-20T02:11:26.032Z,100.67
2019-01-20T02:12:31.926Z,98.67
2019-01-20T02:13:37.693Z,98.30
2019-01-20T02:14:43.737Z,104.90
2019-01-20T02:15:49.624Z,92.53
2019-01-20T02:16:55.569Z,97.33
2019-01-20T02:18:01.428Z,94.83
2019-01-20T02:19:07.251Z,93.07
2019-01-20T02:20:15.960Z,93.35
2019-01-20T02:21:21.875Z,92.02
2019-01-20T02:22:27.875Z,84.05
2019-01-20T02:23:33.706Z,75.40
2019-01-20T02:24:39.549Z,79.82
2019-01-20T02:25:45.380Z,78.52
2019-01-20T02:26:51.368Z,75.57
2019-01-20T02:27:58.684Z,73.83
2019-01-20T02:29:04.950Z,74.53
2019-01-20T02:30:15.620Z,76.00
2019-01-20T02:31:24.514Z,71.75
2019-01-20T02:32:31.167Z,68.57
2019-01-20T02:33:37.044Z,70.47
2019-01-20T02:34:42.947Z,67.53
2019-01-20T02:35:49.891Z,68.83
2019-01-20T02:36:55.734Z,66.67
2019-01-20T02:38:02.215Z,68.65
2019-01-20T02:39:08.753Z,69.75
2019-01-20T02:40:15.443Z,68.60
2019-01-20T02:41:21.403Z,68.07
2019-01-20T02:42:27.231Z,68.80
2019-01-20T02:43:33.078Z,66.77
2019-01-20T02:44:38.894Z,69.77
2019-01-20T02:45:44.749Z,69.35
2019-01-20T02:46:50.643Z,68.10
2019-01-20T02:47:56.500Z,76.00
2019-01-20T02:49:02.323Z,77.47
2019-01-20T02:50:09.722Z,77.45
2019-01-20T02:51:15.544Z,85.30
2019-01-20T02:52:21.447Z,83.87
2019-01-20T02:53:27.315Z,84.85
2019-01-20T02:54:33.149Z,80.97
2019-01-20T02:55:38.967Z,79.42
2019-01-20T02:56:45.052Z,80.53
2019-01-20T02:57:50.906Z,85.62
2019-01-20T02:58:58.747Z,85.47
2019-01-20T03:00:06.624Z,87.00
2019-01-20T03:01:12.388Z,93.05
2019-01-20T03:02:18.176Z,102.75
2019-01-20T03:03:23.944Z,100.65
2019-01-20T03:04:29.786Z,90.55
2019-01-20T03:05:36.267Z,92.60
2019-01-20T03:06:42.105Z,95.65
2019-01-20T03:07:47.898Z,91.32
2019-01-20T03:08:53.806Z,97.12
2019-01-20T03:09:59.690Z,94.97
2019-01-20T03:11:05.542Z,92.02
2019-01-20T03:12:11.263Z,94.05
2019-01-20T03:13:17.028Z,90.92
2019-01-20T03:14:22.824Z,101.42
2019-01-20T03:15:29.382Z,94.22
2019-01-20T03:16:35.222Z,99.32
2019-01-20T03:17:41.000Z,96.85
2019-01-20T03:18:47.870Z,96.78
2019-01-20T03:19:53.654Z,95.30
2019-01-20T03:20:59.524Z,94.47
2019-01-20T03:22:05.611Z,86.53
2019-01-20T03:23:11.472Z,88.95
2019-01-20T03:24:17.391Z,80.45
2019-01-20T03:25:23.343Z,80.83
2019-01-20T03:26:29.301Z,77.70
2019-01-20T03:27:35.143Z,78.12
2019-01-20T03:28:40.991Z,80.22
2019-01-20T03:29:47.268Z,79.60
2019-01-20T03:30:53.077Z,83.80
2019-01-20T03:31:59.045Z,80.60
2019-01-20T03:33:04.999Z,76.90
2019-01-20T03:34:10.835Z,76.07
2019-01-20T03:35:19.049Z,73.28
2019-01-20T03:36:26.083Z,72.37
2019-01-20T03:37:31.951Z,70.60
2019-01-20T03:38:37.739Z,69.55
2019-01-20T03:39:43.627Z,71.25
2019-01-20T03:40:49.519Z,70.10
2019-01-20T03:41:55.370Z,73.30
2019-01-20T03:43:01.381Z,71.72
2019-01-20T03:44:07.303Z,67.40
2019-01-20T03:45:22.882Z,64.32
2019-01-20T03:46:28.807Z,62.15
2019-01-20T03:47:34.610Z,65.35
2019-01-20T03:48:40.542Z,63.05
2019-01-20T03:49:46.397Z,64.00
2019-01-20T03:50:52.265Z,64.37
2019-01-20T03:51:58.138Z,66.05
2019-01-20T03:53:04.004Z,64.60
2019-01-20T03:54:09.968Z,63.50
2019-01-20T03:55:17.486Z,64.58
2019-01-20T03:56:23.470Z,63.75
2019-01-20T03:57:29.447Z,64.07
2019-01-20T03:58:35.448Z,61.75
2019-01-20T03:59:41.685Z,64.22
2019-01-20T04:00:47.825Z,66.05
2019-01-20T04:01:57.232Z,65.22
2019-01-20T04:03:05.872Z,64.65
2019-01-20T04:04:12.613Z,60.90
2019-01-20T04:05:18.612Z,62.83
2019-01-20T04:06:24.559Z,61.70
2019-01-20T04:07:30.390Z,57.78
2019-01-20T04:08:36.252Z,59.13
2019-01-20T04:09:42.130Z,56.37
2019-01-20T04:10:50.383Z,57.88
2019-01-20T04:11:56.275Z,56.30
2019-01-20T04:13:02.142Z,56.65
2019-01-20T04:14:08.122Z,56.15
2019-01-20T04:15:14.902Z,54.85
2019-01-20T04:16:20.777Z,52.60
2019-01-20T04:17:26.656Z,51.30
2019-01-20T04:18:32.428Z,51.77
2019-01-20T04:19:38.266Z,55.25
2019-01-20T04:20:44.721Z,56.83
2019-01-20T04:21:50.777Z,56.70
2019-01-20T04:22:56.635Z,53.10
2019-01-20T04:24:02.480Z,56.18
2019-01-20T04:25:10.687Z,53.15
2019-01-20T04:26:16.943Z,56.88
2019-01-20T04:27:22.848Z,54.38
2019-01-20T04:28:28.688Z,58.08
2019-01-20T04:29:34.590Z,54.95
2019-01-20T04:30:40.427Z,55.28
2019-01-20T04:31:46.296Z,55.03
2019-01-20T04:32:52.269Z,56.83
2019-01-20T04:33:58.080Z,54.88
2019-01-20T04:35:05.406Z,54.63
2019-01-20T04:36:11.304Z,54.70
2019-01-20T04:37:29.867Z,56.00
2019-01-20T04:38:37.134Z,56.50
2019-01-20T04:39:43.143Z,55.45
2019-01-20T04:40:48.983Z,54.50
2019-01-20T04:41:54.813Z,54.53
2019-01-20T04:43:00.633Z,55.00
2019-01-20T04:44:06.561Z,53.87
2019-01-20T04:45:13.341Z,54.18
2019-01-20T04:46:19.201Z,54.42
2019-01-20T04:47:25.124Z,52.75
2019-01-20T04:48:31.005Z,54.40
2019-01-20T04:49:36.955Z,54.23
2019-01-20T04:50:42.828Z,54.95
2019-01-20T04:51:48.711Z,54.18
2019-01-20T04:52:54.685Z,53.73
2019-01-20T04:54:00.761Z,54.33
2019-01-20T04:55:08.096Z,53.38
2019-01-20T04:56:13.980Z,53.83
2019-01-20T04:57:21.404Z,56.05
2019-01-20T04:58:27.671Z,54.27
2019-01-20T04:59:33.523Z,55.20
2019-01-20T05:00:40.438Z,55.12
2019-01-20T05:01:46.326Z,55.20
2019-01-20T05:02:52.250Z,56.68
2019-01-20T05:03:58.105Z,54.88
2019-01-20T05:05:04.057Z,54.45
2019-01-20T05:06:09.991Z,54.05
2019-01-20T05:07:15.766Z,52.25
2019-01-20T05:08:21.809Z,54.42
2019-01-20T05:09:27.591Z,52.78
2019-01-20T05:10:33.416Z,55.33
2019-01-20T05:11:39.341Z,56.40
2019-01-20T05:12:45.361Z,55.75
2019-01-20T05:13:51.197Z,54.65
2019-01-20T05:14:57.037Z,53.75
2019-01-20T05:16:02.999Z,53.05
2019-01-20T05:17:08.963Z,52.40
2019-01-20T05:18:14.741Z,56.83
2019-01-20T05:19:20.647Z,54.33
2019-01-20T05:20:26.603Z,56.68
2019-01-20T05:21:32.475Z,53.95
2019-01-20T05:22:38.366Z,53.00
2019-01-20T05:23:44.302Z,51.92
2019-01-20T05:24:50.128Z,52.98
2019-01-20T05:25:56.002Z,51.83
2019-01-20T05:27:02.016Z,53.68
2019-01-20T05:28:07.967Z,51.88
2019-01-20T05:29:13.854Z,52.85
2019-01-20T05:30:21.830Z,53.13
2019-01-20T05:31:27.672Z,53.00
2019-01-20T05:32:33.443Z,52.25
2019-01-20T05:33:39.430Z,54.25
2019-01-20T05:34:46.329Z,51.10
2019-01-20T05:35:52.180Z,52.53
2019-01-20T05:36:58.038Z,51.58
2019-01-20T05:38:03.916Z,52.23
2019-01-20T05:39:09.992Z,52.67
2019-01-20T05:40:17.325Z,53.80
2019-01-20T05:41:23.416Z,50.00
2019-01-20T05:42:29.282Z,52.48
2019-01-20T05:43:35.113Z,52.83
2019-01-20T05:44:41.027Z,52.65
2019-01-20T05:45:47.020Z,54.40
2019-01-20T05:46:52.919Z,53.92
2019-01-20T05:47:58.802Z,53.78
2019-01-20T05:49:04.843Z,55.08
2019-01-20T05:50:12.576Z,54.50
2019-01-20T05:51:18.514Z,56.00
2019-01-20T05:52:24.476Z,55.05
2019-01-20T05:53:30.372Z,55.92
2019-01-20T05:54:36.292Z,56.05
2019-01-20T05:55:42.222Z,56.05
2019-01-20T05:56:48.034Z,55.00
2019-01-20T05:57:54.061Z,56.15
2019-01-20T05:59:00.007Z,57.30
2019-01-20T06:00:10.787Z,58.05
2019-01-20T06:01:17.721Z,55.70
2019-01-20T06:02:23.495Z,56.85
2019-01-20T06:03:29.762Z,61.23
2019-01-20T06:04:35.531Z,60.95
2019-01-20T06:05:41.482Z,64.77
2019-01-20T06:06:47.427Z,64.58
2019-01-20T06:07:53.529Z,65.08
2019-01-20T06:08:59.419Z,62.85
2019-01-20T06:10:06.782Z,65.42
2019-01-20T06:11:12.636Z,64.50
2019-01-20T06:12:19.435Z,63.70
2019-01-20T06:13:25.363Z,62.65
2019-01-20T06:14:31.336Z,64.27
2019-01-20T06:15:37.112Z,63.58
2019-01-20T06:16:43.062Z,63.28
2019-01-20T06:17:49.068Z,64.50
2019-01-20T06:18:55.956Z,63.40
2019-01-20T06:20:01.861Z,66.07
2019-01-20T06:21:07.671Z,62.55
2019-01-20T06:22:13.626Z,63.05
2019-01-20T06:23:19.625Z,63.58
2019-01-20T06:24:25.532Z,62.30
2019-01-20T06:25:31.490Z,61.55
2019-01-20T06:26:37.400Z,61.25
2019-01-20T06:27:43.376Z,60.80
2019-01-20T06:28:49.271Z,61.68
2019-01-20T06:29:55.016Z,71.22
2019-01-20T06:31:00.791Z,65.55
2019-01-20T06:32:08.806Z,69.22
2019-01-20T06:33:14.595Z,66.33
2019-01-20T06:34:20.441Z,65.40
2019-01-20T06:35:26.246Z,63.85
2019-01-20T06:36:32.003Z,65.57
2019-01-20T06:37:37.792Z,65.25
2019-01-20T06:38:43.720Z,62.93
2019-01-20T06:39:50.949Z,60.15
2019-01-20T06:40:56.983Z,60.43
2019-01-20T06:42:03.011Z,57.90
2019-01-20T06:43:08.893Z,59.00
2019-01-20T06:44:14.675Z,57.62
2019-01-20T06:45:20.723Z,58.15
2019-01-20T06:46:26.528Z,63.05
2019-01-20T06:47:32.356Z,61.85
2019-01-20T06:48:38.094Z,60.52
2019-01-20T06:49:43.966Z,61.60
2019-01-20T06:50:50.002Z,63.10
2019-01-20T06:51:55.880Z,58.33
2019-01-20T06:53:01.716Z,59.33
2019-01-20T06:54:08.643Z,61.98
2019-01-20T06:55:14.927Z,58.90
2019-01-20T06:56:20.783Z,54.33
2019-01-20T06:57:26.659Z,54.90
2019-01-20T06:58:32.589Z,55.10
2019-01-20T06:59:38.402Z,53.92
2019-01-20T07:00:44.342Z,55.95
2019-01-20T07:01:50.284Z,54.00
2019-01-20T07:02:56.251Z,54.73
2019-01-20T07:04:03.890Z,55.10
2019-01-20T07:05:10.061Z,55.00
2019-01-20T07:06:15.934Z,52.98
2019-01-20T07:07:21.834Z,53.78
2019-01-20T07:08:27.720Z,51.85
2019-01-20T07:09:33.615Z,50.70
2019-01-20T07:10:39.462Z,52.38
2019-01-20T07:11:45.377Z,52.53
2019-01-20T07:12:51.387Z,53.45
2019-01-20T07:13:57.309Z,55.73
2019-01-20T07:15:03.256Z,52.95
2019-01-20T07:16:09.265Z,56.73
2019-01-20T07:17:15.199Z,54.15
2019-01-20T07:18:21.084Z,53.83
2019-01-20T07:19:27.022Z,54.65
2019-01-20T07:20:32.914Z,55.65
2019-01-20T07:21:38.727Z,57.05
2019-01-20T07:22:44.763Z,56.90
2019-01-20T07:23:50.658Z,57.50
2019-01-20T07:24:56.616Z,57.65
2019-01-20T07:26:02.596Z,58.40
2019-01-20T07:27:08.511Z,54.73
2019-01-20T07:28:14.382Z,56.33
2019-01-20T07:29:20.377Z,54.08
2019-01-20T07:30:26.690Z,53.10
2019-01-20T07:31:46.237Z,51.42
2019-01-20T07:32:52.339Z,53.73
2019-01-20T07:33:58.161Z,54.77
2019-01-20T07:35:04.213Z,56.20
2019-01-20T07:36:10.146Z,57.13
2019-01-20T07:37:16.050Z,56.10
2019-01-20T07:38:21.868Z,55.83
2019-01-20T07:39:27.879Z,55.40
2019-01-20T07:40:34.681Z,52.23
2019-01-20T07:41:40.779Z,51.23
2019-01-20T07:42:46.729Z,54.15
2019-01-20T07:43:52.729Z,52.27
2019-01-20T07:45:17.613Z,55.05
2019-01-20T07:46:23.548Z,52.55
2019-01-20T07:47:29.735Z,52.73
2019-01-20T07:48:35.619Z,53.25
2019-01-20T07:49:41.470Z,55.03
2019-01-20T07:50:47.793Z,54.23
2019-01-20T07:51:53.978Z,55.23
2019-01-20T07:52:59.780Z,57.62
2019-01-20T07:54:05.856Z,57.35
2019-01-20T07:55:11.765Z,56.85
2019-01-20T07:56:17.643Z,57.27
2019-01-20T07:57:23.484Z,58.25
2019-01-20T07:58:29.380Z,60.43
2019-01-20T07:59:35.393Z,67.47
2019-01-20T08:00:41.241Z,68.05
2019-01-20T08:01:47.071Z,78.35
2019-01-20T08:02:52.890Z,77.78
2019-01-20T08:03:58.780Z,92.20
2019-01-20T08:08:07.684Z,85.38
2019-01-20T08:09:13.520Z,95.53
2019-01-20T08:10:21.791Z,94.72
2019-01-20T08:11:27.838Z,84.47
2019-01-20T08:12:33.667Z,75.55
2019-01-20T08:13:39.575Z,80.10
2019-01-20T08:14:45.562Z,70.47
2019-01-20T08:15:51.513Z,64.85
2019-01-20T08:16:57.407Z,63.00
2019-01-20T08:18:03.512Z,60.85
2019-01-20T08:19:09.604Z,66.70
2019-01-20T08:20:17.753Z,62.65
2019-01-20T08:21:23.689Z,59.73
2019-01-20T08:22:29.979Z,60.17
2019-01-20T08:23:36.091Z,61.88
2019-01-20T08:24:42.027Z,58.98
2019-01-20T08:25:50.802Z,61.50
2019-01-20T08:26:56.766Z,62.23
2019-01-20T08:28:02.664Z,65.60
2019-01-20T08:29:08.846Z,63.35
2019-01-20T08:30:19.923Z,64.07
2019-01-20T08:31:25.831Z,62.27
2019-01-20T08:32:31.741Z,58.63
2019-01-20T08:33:37.676Z,56.88
2019-01-20T08:34:44.716Z,58.45
2019-01-20T08:35:50.673Z,58.98
2019-01-20T08:36:56.585Z,56.50
2019-01-20T08:38:02.599Z,57.93
2019-01-20T08:39:09.557Z,59.93
2019-01-20T08:40:20.618Z,57.75
2019-01-20T08:41:26.684Z,57.78
2019-01-20T08:42:32.597Z,57.78
2019-01-20T08:43:39.556Z,59.70
2019-01-20T08:44:46.891Z,61.60
2019-01-20T08:46:09.635Z,60.50
2019-01-20T08:47:28.135Z,60.95
2019-01-20T08:48:34.481Z,60.05
2019-01-20T08:49:40.412Z,65.35
2019-01-20T08:50:46.425Z,63.58
2019-01-20T08:51:52.387Z,64.03
2019-01-20T08:52:58.285Z,66.22
2019-01-20T08:54:04.109Z,69.85
2019-01-20T08:55:10.968Z,71.25
2019-01-20T08:56:16.764Z,72.70
2019-01-20T08:57:22.766Z,77.10
2019-01-20T08:58:28.701Z,74.55
2019-01-20T08:59:34.578Z,75.35
2019-01-20T09:00:40.786Z,73.83
2019-01-20T09:01:46.617Z,70.85
2019-01-20T09:02:52.525Z,73.78
2019-01-20T09:03:58.478Z,71.02
2019-01-20T09:05:04.567Z,68.87
2019-01-20T09:06:10.514Z,62.08
2019-01-20T09:07:16.349Z,63.33
2019-01-20T09:08:22.267Z,66.00
2019-01-20T09:09:28.408Z,65.22
2019-01-20T09:10:34.570Z,65.52
2019-01-20T09:11:40.532Z,64.70
2019-01-20T09:12:46.532Z,67.35
2019-01-20T09:13:52.535Z,61.75
2019-01-20T09:14:58.371Z,54.98
2019-01-20T09:16:04.365Z,54.42
2019-01-20T09:17:10.420Z,54.67
2019-01-20T09:18:16.307Z,56.02
2019-01-20T09:19:23.174Z,54.27
2019-01-20T09:20:29.247Z,56.70
2019-01-20T09:21:35.229Z,60.12
2019-01-20T09:22:41.329Z,63.98
2019-01-20T09:23:48.262Z,59.75
2019-01-20T09:24:54.319Z,52.48
2019-01-20T09:26:00.287Z,58.45
2019-01-20T09:27:06.377Z,55.33
2019-01-20T09:28:12.203Z,56.23
2019-01-20T09:29:18.215Z,57.20
2019-01-20T09:30:24.235Z,57.27
2019-01-20T09:31:30.549Z,54.70
2019-01-20T09:32:36.555Z,56.35
2019-01-20T09:33:43.668Z,57.98
2019-01-20T09:34:50.439Z,52.40
2019-01-20T09:35:56.292Z,54.23
2019-01-20T09:37:02.210Z,57.65
2019-01-20T09:38:08.133Z,54.55
2019-01-20T09:39:15.284Z,52.27
2019-01-20T09:40:21.133Z,52.62
2019-01-20T09:41:27.082Z,53.63
2019-01-20T09:42:32.994Z,52.83
2019-01-20T09:43:38.903Z,50.43
2019-01-20T09:44:44.767Z,52.70
2019-01-20T09:45:51.340Z,53.52
2019-01-20T09:46:57.386Z,50.10
2019-01-20T09:48:03.443Z,48.17
2019-01-20T09:49:09.278Z,48.92
2019-01-20T09:50:15.344Z,48.35
2019-01-20T09:51:21.385Z,46.65
2019-01-20T09:52:27.441Z,46.70
2019-01-20T09:53:33.342Z,47.17
2019-01-20T09:54:39.610Z,48.40
2019-01-20T09:55:45.671Z,43.02
2019-01-20T09:56:51.538Z,46.13
2019-01-20T09:57:57.546Z,43.68
2019-01-20T09:59:03.598Z,48.58
2019-01-20T10:00:12.828Z,50.05
2019-01-20T10:01:18.802Z,41.63
2019-01-20T10:02:24.659Z,41.15
2019-01-20T10:03:30.696Z,56.28
2019-01-20T10:04:36.592Z,55.58
2019-01-20T10:05:42.406Z,52.75
2019-01-20T10:06:48.685Z,46.63
2019-01-20T10:07:54.614Z,50.45
2019-01-20T10:09:00.482Z,45.75
2019-01-20T10:10:07.542Z,45.98
2019-01-20T10:11:13.498Z,51.53
2019-01-20T10:12:19.450Z,54.08
2019-01-20T10:13:25.364Z,48.17
2019-01-20T10:14:31.261Z,46.10
2019-01-20T10:15:37.211Z,44.42
2019-01-20T10:16:43.101Z,45.80
2019-01-20T10:17:49.042Z,44.35
2019-01-20T10:18:54.877Z,46.25
2019-01-20T10:20:00.853Z,46.33
2019-01-20T10:21:06.762Z,44.42
2019-01-20T10:22:12.663Z,47.27
2019-01-20T10:23:18.529Z,51.45
2019-01-20T10:24:24.453Z,49.80
2019-01-20T10:25:30.815Z,48.83
2019-01-20T10:26:38.012Z,46.88
2019-01-20T10:27:45.321Z,45.33
2019-01-20T10:28:51.269Z,47.98
2019-01-20T10:29:57.081Z,44.55
2019-01-20T10:31:02.992Z,47.78
2019-01-20T10:32:08.963Z,46.48
2019-01-20T10:33:14.948Z,48.40
2019-01-20T10:34:20.819Z,48.25
2019-01-20T10:35:57.853Z,48.85
2019-01-20T10:37:04.430Z,57.70
2019-01-20T10:38:10.998Z,56.65
2019-01-20T10:39:16.810Z,53.25
2019-01-20T10:40:22.829Z,49.50
2019-01-20T10:41:28.631Z,50.33
2019-01-20T10:42:34.603Z,48.10
2019-01-20T10:43:40.432Z,48.90
2019-01-20T10:44:46.463Z,47.70
2019-01-20T10:45:52.860Z,48.90
2019-01-20T10:46:58.984Z,49.50
2019-01-20T10:48:05.887Z,49.35
2019-01-20T10:49:11.812Z,49.10
2019-01-20T10:50:18.166Z,51.42
2019-01-20T10:51:24.078Z,61.18
2019-01-20T10:52:30.106Z,50.48
2019-01-20T10:53:36.338Z,50.70
2019-01-20T10:54:42.735Z,51.53
2019-01-20T10:55:48.662Z,53.38
2019-01-20T10:56:54.643Z,49.85
2019-01-20T10:58:00.545Z,54.13
2019-01-20T10:59:07.539Z,48.95
2019-01-20T11:00:17.943Z,50.33
2019-01-20T11:01:23.922Z,51.30
2019-01-20T11:02:29.886Z,50.63
2019-01-20T11:03:35.802Z,48.10
2019-01-20T11:04:41.792Z,50.33
2019-01-20T11:05:47.641Z,47.85
2019-01-20T11:06:53.578Z,50.17
2019-01-20T11:07:59.450Z,51.15
2019-01-20T11:09:06.953Z,50.15
2019-01-20T11:10:12.984Z,50.33
2019-01-20T11:11:18.982Z,51.83
2019-01-20T11:12:25.979Z,50.88
2019-01-20T11:13:32.028Z,52.93
2019-01-20T11:14:38.082Z,52.20
2019-01-20T11:15:43.989Z,49.65
2019-01-20T11:16:49.810Z,46.80
2019-01-20T11:17:55.616Z,48.68
2019-01-20T11:19:13.209Z,48.83
2019-01-20T11:20:19.603Z,49.15
2019-01-20T11:21:25.779Z,49.15
2019-01-20T11:22:31.973Z,50.63
2019-01-20T11:23:37.853Z,50.40
2019-01-20T11:24:43.892Z,49.75
2019-01-20T11:25:49.785Z,49.85
2019-01-20T11:26:56.855Z,48.63
2019-01-20T11:28:04.122Z,50.43
2019-01-20T11:29:10.180Z,47.25
2019-01-20T11:30:16.350Z,52.15
2019-01-20T11:31:22.213Z,52.13
2019-01-20T11:32:28.061Z,51.83
2019-01-20T11:33:33.949Z,51.53
2019-01-20T11:34:39.885Z,53.30
2019-01-20T11:35:45.961Z,53.65
2019-01-20T11:36:51.853Z,52.20
2019-01-20T11:37:59.221Z,53.08
2019-01-20T11:39:11.309Z,50.48
2019-01-20T11:40:17.325Z,49.88
2019-01-20T11:41:23.313Z,51.35
2019-01-20T11:42:29.694Z,50.67
2019-01-20T11:43:35.712Z,51.20
2019-01-20T11:44:41.542Z,50.30
2019-01-20T11:45:47.517Z,51.58
2019-01-20T11:46:53.500Z,54.15
2019-01-20T11:48:00.402Z,53.80
2019-01-20T11:49:06.184Z,55.05
2019-01-20T11:50:12.265Z,53.58
2019-01-20T11:51:18.121Z,56.83
2019-01-20T11:52:24.133Z,55.30
2019-01-20T11:53:30.013Z,52.25
2019-01-20T11:54:38.877Z,54.23
2019-01-20T11:55:44.905Z,51.55
2019-01-20T11:56:50.790Z,53.50
2019-01-20T11:57:56.859Z,53.40
2019-01-20T11:59:02.935Z,47.90
2019-01-20T12:00:13.024Z,43.70
2019-01-20T12:01:18.847Z,44.45
2019-01-20T12:02:24.823Z,44.08
2019-01-20T12:03:30.794Z,45.83
2019-01-20T12:04:36.644Z,44.00
2019-01-20T12:05:44.880Z,44.25
2019-01-20T12:06:50.792Z,40.43
2019-01-20T12:07:56.989Z,40.70
2019-01-20T12:09:04.753Z,37.33
2019-01-20T12:10:10.966Z,37.00
2019-01-20T12:11:18.798Z,40.30
2019-01-20T12:12:25.362Z,40.90
2019-01-20T12:13:31.415Z,38.78
2019-01-20T12:14:37.331Z,37.00
2019-01-20T12:15:43.195Z,35.45
2019-01-20T12:16:49.098Z,39.23
2019-01-20T12:17:54.977Z,36.55
2019-01-20T12:19:01.144Z,37.83
2019-01-20T12:20:09.044Z,37.20
2019-01-20T12:21:14.924Z,39.45
2019-01-20T12:22:20.918Z,37.73
2019-01-20T12:23:26.945Z,37.15
2019-01-20T12:24:32.805Z,34.40
2019-01-20T12:26:26.619Z,36.38
2019-01-20T12:27:32.595Z,36.50
2019-01-20T12:28:38.513Z,36.30
2019-01-20T12:29:51.641Z,38.60
2019-01-20T12:30:52.029Z,37.50
2019-01-20T12:31:57.989Z,37.25
2019-01-20T12:33:05.735Z,39.23
2019-01-20T12:34:11.595Z,38.88
2019-01-20T12:35:17.677Z,37.70
2019-01-20T12:36:23.730Z,39.05
2019-01-20T12:37:40.526Z,37.73
2019-01-20T12:38:47.248Z,37.75
2019-01-20T12:39:53.147Z,38.53
2019-01-20T12:40:59.065Z,37.00
2019-01-20T12:42:05.042Z,38.45
2019-01-20T12:43:14.544Z,37.95
2019-01-20T12:44:21.922Z,36.13
2019-01-20T12:45:28.005Z,36.23
2019-01-20T12:46:34.229Z,36.55
2019-01-20T12:47:40.284Z,37.80
2019-01-20T12:48:46.202Z,38.80
2019-01-20T12:49:52.093Z,38.02
2019-01-20T12:50:57.964Z,39.50
2019-01-20T12:52:04.330Z,37.88
2019-01-20T12:53:10.275Z,38.50
2019-01-20T12:54:16.241Z,37.50
2019-01-20T12:55:22.457Z,38.58
2019-01-20T12:56:28.552Z,37.63
2019-01-20T12:57:34.798Z,37.65
2019-01-20T12:58:40.685Z,37.83
2019-01-20T12:59:46.856Z,39.30
2019-01-20T13:00:52.776Z,37.65
2019-01-20T13:01:58.812Z,36.15
2019-01-20T13:03:05.149Z,39.45
2019-01-20T13:04:11.059Z,37.95
2019-01-20T13:05:17.128Z,39.45
2019-01-20T13:06:22.965Z,39.42
2019-01-20T13:07:28.803Z,36.10
2019-01-20T13:08:35.038Z,35.78
2019-01-20T13:09:41.289Z,35.45
2019-01-20T13:10:47.104Z,33.63
2019-01-20T13:11:52.953Z,32.85
2019-01-20T13:12:58.980Z,33.70
2019-01-20T13:14:05.268Z,32.03
2019-01-20T13:15:13.845Z,33.45
2019-01-20T13:16:19.853Z,33.75
2019-01-20T13:17:25.729Z,35.48
2019-01-20T13:18:32.774Z,35.63
2019-01-20T13:19:38.753Z,35.05
2019-01-20T13:20:45.179Z,34.23
2019-01-20T13:21:51.232Z,37.25
2019-01-20T13:22:57.178Z,36.68
2019-01-20T13:24:03.387Z,38.67
2019-01-20T13:25:11.292Z,35.23
2019-01-20T13:26:17.213Z,34.58
2019-01-20T13:27:23.089Z,36.60
2019-01-20T13:28:29.171Z,35.43
2019-01-20T13:29:35.052Z,31.17
2019-01-20T13:30:41.097Z,34.83
2019-01-20T13:31:46.975Z,36.80
2019-01-20T13:32:53.021Z,37.55
2019-01-20T13:33:59.135Z,34.53
2019-01-20T13:35:05.525Z,32.40
2019-01-20T13:36:11.392Z,31.00
2019-01-20T13:37:17.601Z,28.00
2019-01-20T13:38:24.820Z,27.73
2019-01-20T13:39:43.615Z,28.67
2019-01-20T13:40:56.801Z,28.62
2019-01-20T13:42:03.030Z,30.30
2019-01-20T13:43:09.039Z,29.72
2019-01-20T13:44:14.996Z,28.12
2019-01-20T13:45:21.026Z,35.68
2019-01-20T13:46:26.951Z,34.75
2019-01-20T13:47:32.866Z,31.37
2019-01-20T13:48:38.976Z,35.23
2019-01-20T13:49:44.921Z,37.95
2019-01-20T13:50:51.011Z,38.63
2019-01-20T13:51:57.157Z,50.38
2019-01-20T13:53:03.416Z,35.75
2019-01-20T13:54:09.487Z,32.25
2019-01-20T13:55:15.789Z,32.55
2019-01-20T13:56:21.874Z,33.33
2019-01-20T13:57:27.733Z,31.33
2019-01-20T13:58:33.905Z,32.10
2019-01-20T13:59:39.848Z,30.77
2019-01-20T14:00:46.135Z,32.38
2019-01-20T14:01:52.142Z,32.45
2019-01-20T14:02:58.154Z,32.85
2019-01-20T14:04:04.327Z,30.60
2019-01-20T14:05:10.465Z,32.15
2019-01-20T14:06:17.295Z,32.10
2019-01-20T14:07:23.419Z,39.60
2019-01-20T14:08:29.316Z,36.28
2019-01-20T14:09:35.215Z,27.27
2019-01-20T14:10:41.388Z,29.45
2019-01-20T14:11:47.236Z,31.52
2019-01-20T14:12:53.071Z,30.17
2019-01-20T14:13:59.036Z,30.88
2019-01-20T14:15:06.229Z,32.00
2019-01-20T14:16:12.155Z,31.37
2019-01-20T14:17:18.077Z,30.15